Startpagina
METAR-TAF:

METAR-TAF

Vliegvelden :

Hagåtña, Guam, Verenigde Staten

breedte: 13-29N, lengte: 144-48E, hoogte: 91 m

Actueel weer

Dit bericht is 31 minuten geleden gemaakt, om 00:08 UTC
Wind 5 kt uit het noordwesten
Temperatuur 30°C
Vochtigheid 79%
Druk 1010 hPa
Zicht: 16.1 km
Weinig wolken op 2300 ft
Verspreide wolken op 2800 ft
Gebroken wolken op 4100 ft

METAR: PGUM 260008Z 32005KT 10SM FEW023 SCT028 BKN041 30/26 A2983 RMK AO2 T03000261

Tijdstip: 10:39 (00:39 UTC)

Verwachting

Dit bericht is 1 uur en het 3 minuten geleden gemaakt, om 23:36 UTC
Verwachting geldig van 26 om 00 UTC tot 27 om 06 UTC
Wind 8 kt uit het zuidzuidwesten
Zicht: 10 km
Verspreide wolken op 2000 ft
Verspreide wolken op 4000 ft
buien in de omgeving

TAF: PGUM 252336Z 2600/2706 21008KT P6SM VCSH SCT020 SCT040

Waarnemingen en weersverwachtingen van meer dan 4000 vliegvelden (METAR en TAF).

De beschikbare stations zijn de gele en rode punten op de kaart.

Ga met uw muis naar het station om de naam te zien.

Klik dan om waarnemingen en weersverwachtingen te zien.

kaart wijzigen: klik op de groene knoppen met een zwart kruis om in te zoomen, op de groene knop met een streepje om uit te zoomen of op de groene pijlen voor aangrenzende kaarten.


METAR-TAF: